Time;durP1;ratioP1;P1;durP2;ratioP2;P2;SDS_P1;SDS_P2;PMS_P1;PMS_P2;Temp;Humidity;BMP_temperature;BMP_pressure;BME280_temperature;BME280_humidity;BME280_pressure;Samples;Min_cycle;Max_cycle;Signal;HPM_P1;HPM_P2
2023/01/05 00:01:31;;;;;;;1.10;0.57;;;;;;;11.78;82.88;99102.66;5011063;28;102752;-65
2023/01/05 00:04:00;;;;;;;0.57;0.50;;;;;;;11.76;82.85;99105.38;5001165;28;104158;-65
2023/01/05 00:06:28;;;;;;;0.50;0.40;;;;;;;11.59;83.29;99106.53;5007640;28;103232;-65
2023/01/05 00:08:59;;;;;;;1.53;0.70;;;;;;;11.67;82.81;99095.44;5005323;28;102644;-65
2023/01/05 00:22:37;;;;;;;0.37;0.37;;;;;;;11.76;82.53;99092.16;4994975;28;104134;-68
2023/01/05 00:25:07;;;;;;;0.50;0.50;;;;;;;11.84;82.42;99099.56;5010325;27;104093;-66
2023/01/05 00:27:40;;;;;;;0.30;0.30;;;;;;;11.88;82.03;99093.09;4989652;28;103431;-66
2023/01/05 00:30:09;;;;;;;0.30;0.30;;;;;;;11.81;82.68;99097.13;4993613;28;102687;-65
2023/01/05 00:32:38;;;;;;;0.30;0.30;;;;;;;11.81;82.49;99097.13;5004582;27;104225;-66
2023/01/05 00:35:08;;;;;;;0.77;0.40;;;;;;;11.80;82.65;99088.34;5008648;28;104180;-66
2023/01/05 00:37:37;;;;;;;0.43;0.43;;;;;;;11.90;82.19;99092.00;4991045;28;104279;-66
2023/01/05 00:40:06;;;;;;;0.40;0.40;;;;;;;11.98;82.03;99086.19;5005659;28;102773;-66
2023/01/05 00:42:34;;;;;;;0.73;0.47;;;;;;;11.98;81.95;99089.69;4991656;28;102738;-66
2023/01/05 00:45:02;;;;;;;0.33;0.30;;;;;;;11.74;82.77;99088.78;4993822;28;104441;-66
2023/01/05 00:47:33;;;;;;;0.50;0.40;;;;;;;11.98;82.25;99079.09;5007761;28;103263;-65
2023/01/05 00:50:01;;;;;;;0.30;0.30;;;;;;;11.97;82.21;99076.53;5007736;28;103125;-65
2023/01/05 00:52:30;;;;;;;0.40;0.40;;;;;;;11.99;82.15;99082.56;5007999;28;103021;-65
2023/01/05 00:54:58;;;;;;;0.50;0.50;;;;;;;11.73;83.35;99079.16;5009101;27;103813;-66
2023/01/05 00:57:28;;;;;;;0.47;0.30;;;;;;;11.92;82.78;99074.25;5006455;28;104093;-65
2023/01/05 00:59:56;;;;;;;0.80;0.40;;;;;;;11.84;83.05;99079.25;5006422;28;102837;-65
2023/01/05 01:02:24;;;;;;;0.40;0.40;;;;;;;11.97;82.71;99077.41;5006199;27;102841;-66
2023/01/05 01:04:52;;;;;;;0.40;0.40;;;;;;;11.92;82.85;99074.25;4991072;28;103944;-65
2023/01/05 01:07:22;;;;;;;1.40;0.33;;;;;;;12.14;82.06;99084.13;4991692;28;104236;-66
2023/01/05 01:09:52;;;;;;;1.80;0.50;;;;;;;11.96;83.09;99086.28;5007848;28;102730;-66
2023/01/05 01:12:20;;;;;;;0.53;0.50;;;;;;;11.81;83.49;99087.41;4991044;28;103769;-66
2023/01/05 01:14:51;;;;;;;0.30;0.30;;;;;;;11.94;83.07;99087.34;4993012;28;103413;-65
2023/01/05 01:17:19;;;;;;;0.30;0.30;;;;;;;11.92;83.37;99076.88;5013731;28;103189;-68
2023/01/05 01:19:47;;;;;;;0.30;0.30;;;;;;;11.83;83.79;99085.47;4995499;28;102696;-66
2023/01/05 01:22:15;;;;;;;0.50;0.50;;;;;;;11.93;83.57;99070.63;4992718;28;103754;-65
2023/01/05 01:24:43;;;;;;;0.50;0.40;;;;;;;11.82;84.25;99081.13;4992780;28;104195;-66
2023/01/05 01:27:13;;;;;;;0.30;0.30;;;;;;;11.86;83.97;99068.53;5008265;28;103259;-66
2023/01/05 01:29:41;;;;;;;0.37;0.37;;;;;;;11.78;84.41;99079.66;5005726;28;102567;-66
2023/01/05 01:32:09;;;;;;;0.97;0.30;;;;;;;11.95;83.79;99067.88;5010650;28;102689;-66
2023/01/05 01:34:38;;;;;;;0.30;0.30;;;;;;;11.99;83.79;99067.53;4993019;28;103192;-66
2023/01/05 01:37:06;;;;;;;0.30;0.30;;;;;;;11.96;83.90;99065.09;5011735;28;103261;-66
2023/01/05 01:39:39;;;;;;;0.80;0.30;;;;;;;11.87;84.08;99065.78;5000848;28;102771;-66
2023/01/05 01:42:15;;;;;;;0.43;0.30;;;;;;;11.99;83.59;99069.31;4999080;28;103897;-69
2023/01/05 01:44:54;;;;;;;0.30;0.30;;;;;;;12.06;83.36;99066.16;5015702;28;103264;-69
2023/01/05 01:47:35;;;;;;;1.30;0.47;;;;;;;12.07;83.57;99067.81;4995704;27;104292;-69
2023/01/05 01:50:10;;;;;;;0.47;0.40;;;;;;;11.98;83.80;99063.22;5012019;28;102727;-69
2023/01/05 01:52:40;;;;;;;0.90;0.30;;;;;;;12.10;83.38;99062.28;5017978;28;103491;-69
2023/01/05 01:55:10;;;;;;;0.30;0.30;;;;;;;12.03;83.83;99061.06;5007805;28;103674;-69
2023/01/05 01:57:42;;;;;;;0.50;0.30;;;;;;;11.98;84.29;99055.25;5002906;28;102984;-69
2023/01/05 02:00:13;;;;;;;0.20;0.20;;;;;;;11.95;84.12;99058.13;4998126;28;102684;-69
2023/01/05 02:02:46;;;;;;;0.57;0.33;;;;;;;12.07;83.59;99067.00;5013793;28;104295;-69
2023/01/05 02:05:19;;;;;;;0.97;0.30;;;;;;;12.12;83.41;99067.50;4999985;28;103210;-69
2023/01/05 02:07:48;;;;;;;0.30;0.30;;;;;;;12.20;82.98;99059.84;5001897;28;104114;-69
2023/01/05 02:10:20;;;;;;;0.47;0.33;;;;;;;12.03;83.68;99063.72;4999910;28;103166;-69
2023/01/05 02:13:12;;;;;;;0.30;0.30;;;;;;;12.04;83.89;99062.75;4996591;28;103846;-69
2023/01/05 02:15:50;;;;;;;0.33;0.33;;;;;;;12.14;83.76;99057.63;5013308;28;104016;-69
2023/01/05 02:18:34;;;;;;;0.30;0.30;;;;;;;11.97;84.30;99056.22;5001176;28;105238;-69
2023/01/05 02:21:18;;;;;;;0.67;0.30;;;;;;;12.08;83.86;99055.44;5009877;28;102672;-69
2023/01/05 02:24:27;;;;;;;0.33;0.33;;;;;;;12.15;83.26;99044.25;4998025;28;102695;-69
2023/01/05 02:27:34;;;;;;;0.20;0.20;;;;;;;12.14;83.51;99041.75;4992099;28;104122;-69
2023/01/05 02:30:58;;;;;;;0.40;0.40;;;;;;;12.11;83.88;99044.63;4993082;28;104505;-69
2023/01/05 02:34:01;;;;;;;0.30;0.30;;;;;;;12.20;83.51;99039.50;4990621;28;102731;-68
2023/01/05 02:36:36;;;;;;;1.27;0.30;;;;;;;12.11;83.74;99036.66;4986404;28;102767;-68
2023/01/05 02:39:14;;;;;;;0.93;0.40;;;;;;;12.10;83.99;99035.81;4995404;28;104340;-69
2023/01/05 02:41:49;;;;;;;0.30;0.30;;;;;;;12.10;84.17;99021.72;4998720;28;105769;-69
2023/01/05 02:44:19;;;;;;;0.30;0.30;;;;;;;12.17;83.79;99031.78;4997879;28;102857;-69
2023/01/05 02:46:59;;;;;;;0.30;0.30;;;;;;;12.14;83.97;99037.28;5004281;28;103998;-68
2023/01/05 02:49:31;;;;;;;2.10;0.40;;;;;;;12.18;83.99;99046.69;4995801;28;103279;-66
2023/01/05 02:52:04;;;;;;;0.30;0.30;;;;;;;12.10;84.39;99049.06;4996275;28;103477;-69
2023/01/05 02:54:38;;;;;;;0.30;0.30;;;;;;;12.23;83.85;99037.56;5015399;28;103032;-68
2023/01/05 02:57:11;;;;;;;0.30;0.30;;;;;;;12.28;83.59;99027.47;5002380;28;103193;-69
2023/01/05 02:59:44;;;;;;;0.30;0.30;;;;;;;12.30;83.63;99028.19;5019266;27;104244;-66
2023/01/05 03:02:17;;;;;;;0.27;0.23;;;;;;;12.33;83.45;99026.19;5009988;27;104629;-66
2023/01/05 03:04:55;;;;;;;0.30;0.30;;;;;;;12.28;83.84;99030.97;4995289;28;102693;-66
2023/01/05 03:07:28;;;;;;;0.30;0.30;;;;;;;12.21;84.05;99038.53;5007493;28;104024;-67
2023/01/05 03:13:39;;;;;;;0.37;0.37;;;;;;;12.26;84.06;99037.34;4991854;28;104655;-66
2023/01/05 03:15:41;;;;;;;0.30;0.30;;;;;;;12.15;84.71;99041.63;4991776;28;102791;-66
2023/01/05 03:18:11;;;;;;;0.20;0.20;;;;;;;12.26;84.56;99038.19;4990752;28;102829;-66
2023/01/05 03:20:50;;;;;;;0.30;0.30;;;;;;;12.36;83.90;99044.50;5010689;27;105901;-66
2023/01/05 03:37:37;;;;;;;0.50;0.30;;;;;;;12.48;83.72;99033.00;4999934;28;103080;-65
2023/01/05 03:40:09;;;;;;;0.23;0.23;;;;;;;12.52;83.74;99038.91;4999527;28;103076;-66
2023/01/05 03:42:39;;;;;;;0.50;0.30;;;;;;;12.49;83.96;99041.78;5006362;28;103226;-66
2023/01/05 03:45:10;;;;;;;0.57;0.40;;;;;;;12.58;83.41;99043.75;4997994;28;104130;-66
2023/01/05 03:47:38;;;;;;;0.30;0.30;;;;;;;12.62;83.27;99047.84;5016045;27;103909;-68
2023/01/05 03:50:10;;;;;;;0.30;0.30;;;;;;;12.61;83.35;99041.72;5004837;28;103743;-69
2023/01/05 03:52:39;;;;;;;0.30;0.30;;;;;;;12.64;83.33;99040.63;5015050;28;103277;-68
2023/01/05 03:55:08;;;;;;;0.30;0.30;;;;;;;12.64;83.07;99045.94;5017275;27;104246;-68
2023/01/05 03:57:36;;;;;;;0.37;0.37;;;;;;;12.81;82.45;99040.19;5020880;27;102647;-69
2023/01/05 04:00:05;;;;;;;0.20;0.20;;;;;;;12.75;83.03;99044.16;5014855;28;103070;-68
2023/01/05 04:02:44;;;;;;;0.27;0.27;;;;;;;12.78;83.31;99049.25;5012708;27;104068;-69
2023/01/05 04:05:18;;;;;;;0.20;0.20;;;;;;;12.74;83.83;99041.66;5000809;28;103935;-68
2023/01/05 04:07:48;;;;;;;0.30;0.30;;;;;;;12.46;85.18;99048.16;4997358;28;102992;-68
2023/01/05 04:10:17;;;;;;;0.30;0.30;;;;;;;12.70;84.58;99042.81;5001889;28;102799;-66
2023/01/05 04:12:48;;;;;;;0.57;0.30;;;;;;;12.74;84.63;99033.69;4990741;28;103718;-65
2023/01/05 04:15:18;;;;;;;0.47;0.40;;;;;;;12.77;84.45;99030.81;5013203;27;104173;-66
2023/01/05 04:17:46;;;;;;;0.40;0.40;;;;;;;12.75;84.30;99036.22;4997575;28;102795;-66
2023/01/05 04:20:14;;;;;;;0.33;0.33;;;;;;;12.80;84.45;99039.34;4999911;28;102977;-66
2023/01/05 04:22:43;;;;;;;0.40;0.40;;;;;;;12.84;84.45;99042.63;4994870;28;105931;-66
2023/01/05 04:25:12;;;;;;;0.50;0.50;;;;;;;12.65;85.25;99037.88;4994700;28;103382;-66
2023/01/05 04:27:43;;;;;;;0.37;0.37;;;;;;;12.65;85.96;99034.38;4996782;28;102704;-66
2023/01/05 04:30:12;;;;;;;0.30;0.30;;;;;;;12.68;86.02;99036.81;4998852;28;102847;-66
2023/01/05 04:32:41;;;;;;;0.30;0.30;;;;;;;12.72;85.45;99025.84;4991966;28;103760;-66
2023/01/05 04:35:13;;;;;;;0.30;0.30;;;;;;;12.75;85.51;99027.41;4993611;28;104163;-66
2023/01/05 04:37:41;;;;;;;0.30;0.20;;;;;;;12.60;86.19;99031.22;4995533;28;103134;-66
2023/01/05 04:40:12;;;;;;;2.33;0.30;;;;;;;12.56;86.44;99043.88;4992271;28;103499;-66
2023/01/05 04:42:48;;;;;;;0.63;0.40;;;;;;;12.73;85.53;99037.28;4997983;28;105308;-66
2023/01/05 04:45:17;;;;;;;0.40;0.40;;;;;;;12.53;86.26;99038.78;4994687;28;103264;-66
2023/01/05 04:47:45;;;;;;;0.30;0.30;;;;;;;12.64;86.15;99048.59;5002734;28;104073;-66
2023/01/05 04:50:17;;;;;;;0.30;0.30;;;;;;;12.57;86.18;99040.25;5003463;28;103925;-66
2023/01/05 04:52:45;;;;;;;0.30;0.30;;;;;;;12.71;85.56;99042.72;5010316;28;104040;-68
2023/01/05 04:55:15;;;;;;;0.40;0.40;;;;;;;12.71;85.12;99047.19;5010291;28;104073;-69
2023/01/05 04:57:44;;;;;;;0.30;0.30;;;;;;;12.67;85.13;99051.00;4996070;28;102783;-69
2023/01/05 05:00:14;;;;;;;0.40;0.40;;;;;;;12.71;85.68;99052.47;5010953;28;102739;-69
2023/01/05 05:02:43;;;;;;;0.30;0.30;;;;;;;12.48;86.46;99056.00;4988831;28;105242;-69
2023/01/05 05:05:14;;;;;;;0.30;0.30;;;;;;;12.35;87.57;99060.53;4988586;28;105325;-69
2023/01/05 05:07:43;;;;;;;0.40;0.40;;;;;;;12.58;87.24;99063.13;4989286;28;103131;-69
2023/01/05 05:10:17;;;;;;;0.57;0.40;;;;;;;12.61;87.96;99059.41;4994527;28;102823;-68
2023/01/05 05:12:47;;;;;;;0.30;0.30;;;;;;;12.48;89.19;99066.59;5000763;28;105898;-65
2023/01/05 05:15:18;;;;;;;0.30;0.30;;;;;;;12.58;88.53;99063.13;4989808;28;105321;-66
2023/01/05 05:17:49;;;;;;;0.30;0.30;;;;;;;12.19;91.39;99077.53;4991792;28;102751;-65
2023/01/05 05:20:19;;;;;;;0.73;0.30;;;;;;;12.37;90.80;99079.78;5011512;27;104175;-66
2023/01/05 05:22:48;;;;;;;0.20;0.20;;;;;;;12.32;91.84;99088.09;5008865;27;106228;-66
2023/01/05 05:25:20;;;;;;;1.03;0.20;;;;;;;12.31;91.92;99086.38;4992883;28;103407;-66
2023/01/05 05:27:48;;;;;;;0.20;0.20;;;;;;;12.37;91.04;99080.66;4998703;28;102787;-66
2023/01/05 05:30:16;;;;;;;0.57;0.40;;;;;;;12.33;90.82;99083.63;5011163;28;102780;-66
2023/01/05 05:32:44;;;;;;;0.20;0.20;;;;;;;12.45;90.24;99094.16;5009540;28;104196;-66
2023/01/05 05:35:12;;;;;;;0.30;0.30;;;;;;;12.34;91.11;99095.91;5011874;28;104233;-65
2023/01/05 05:37:42;;;;;;;0.23;0.23;;;;;;;12.24;90.94;99105.50;5009621;28;102990;-65
2023/01/05 05:40:11;;;;;;;0.20;0.20;;;;;;;12.07;90.26;99104.91;4994510;28;103119;-65
2023/01/05 05:42:41;;;;;;;0.30;0.30;;;;;;;12.25;89.77;99100.06;5016888;27;104381;-66
2023/01/05 05:45:09;;;;;;;0.40;0.30;;;;;;;12.26;89.88;99109.72;5011883;28;103246;-66
2023/01/05 05:47:37;;;;;;;0.97;0.43;;;;;;;12.24;89.26;99113.44;4992059;28;102763;-66
2023/01/05 05:50:06;;;;;;;1.10;0.50;;;;;;;12.10;88.16;99115.28;4995494;28;102650;-66
2023/01/05 05:52:34;;;;;;;0.80;0.50;;;;;;;12.23;87.03;99120.53;5012455;28;104015;-66
2023/01/05 05:55:01;;;;;;;1.03;0.40;;;;;;;12.31;86.81;99122.63;5017537;28;103019;-66
2023/01/05 05:57:29;;;;;;;1.17;0.57;;;;;;;12.13;86.43;99127.44;5012288;28;103162;-65
2023/01/05 06:00:00;;;;;;;2.57;0.80;;;;;;;12.25;85.62;99123.91;5013837;28;102739;-69
2023/01/05 06:02:39;;;;;;;2.10;0.67;;;;;;;12.40;84.81;99128.13;5014262;28;104001;-65
2023/01/05 06:05:08;;;;;;;1.10;0.60;;;;;;;12.15;85.02;99134.31;5009917;27;104180;-65
2023/01/05 06:07:36;;;;;;;0.97;0.80;;;;;;;12.16;84.10;99146.63;5008234;28;102765;-66
2023/01/05 06:10:05;;;;;;;1.57;0.70;;;;;;;12.26;83.72;99140.66;5013212;28;103910;-65
2023/01/05 06:12:33;;;;;;;1.70;0.90;;;;;;;12.11;83.55;99154.06;5008454;28;103389;-66
2023/01/05 06:15:02;;;;;;;4.80;1.00;;;;;;;12.11;82.96;99154.06;5008156;28;104523;-66
2023/01/05 06:17:30;;;;;;;4.33;0.90;;;;;;;12.07;83.07;99141.97;5007458;28;102782;-65
2023/01/05 06:19:58;;;;;;;1.00;0.60;;;;;;;12.10;83.06;99152.34;5009502;28;102880;-65
2023/01/05 06:22:26;;;;;;;2.33;1.00;;;;;;;12.15;83.16;99152.84;4989991;28;104086;-66
2023/01/05 06:24:54;;;;;;;2.57;0.70;;;;;;;12.09;83.65;99163.06;5005811;27;103249;-66
2023/01/05 06:27:22;;;;;;;3.97;0.80;;;;;;;12.08;83.73;99161.34;5007255;28;102879;-66
2023/01/05 06:29:50;;;;;;;1.67;0.97;;;;;;;12.04;84.07;99170.50;5008505;28;103993;-66
2023/01/05 06:32:19;;;;;;;3.27;0.90;;;;;;;12.13;84.41;99175.97;5011303;28;104135;-66
2023/01/05 06:34:47;;;;;;;4.17;0.90;;;;;;;12.00;86.29;99193.69;5000191;28;103395;-65
2023/01/05 06:37:14;;;;;;;2.33;0.80;;;;;;;11.97;87.51;99193.91;5015398;28;102600;-70
2023/01/05 06:39:42;;;;;;;3.93;1.37;;;;;;;12.03;87.86;99203.22;5009999;28;103919;-68
2023/01/05 06:42:10;;;;;;;3.50;0.90;;;;;;;11.87;88.72;99206.09;5013777;28;103440;-68
2023/01/05 06:44:38;;;;;;;2.83;0.80;;;;;;;11.72;89.32;99198.34;5000048;28;104186;-66
2023/01/05 06:47:06;;;;;;;4.10;0.93;;;;;;;11.93;88.62;99208.28;5010342;27;102718;-66
2023/01/05 06:49:35;;;;;;;4.43;1.13;;;;;;;12.01;88.12;99219.19;5006327;27;103697;-66
2023/01/05 06:52:03;;;;;;;2.30;0.77;;;;;;;12.00;88.80;99209.59;5009186;28;103629;-65
2023/01/05 06:54:31;;;;;;;5.03;0.90;;;;;;;11.90;89.38;99224.41;5004828;28;104220;-66
2023/01/05 06:56:59;;;;;;;5.30;1.03;;;;;;;11.85;90.42;99220.38;4994204;28;102657;-65
2023/01/05 06:59:26;;;;;;;3.50;1.10;;;;;;;11.77;91.69;99233.28;5018060;28;103881;-69
2023/01/05 07:01:54;;;;;;;3.17;0.83;;;;;;;11.96;91.27;99229.28;5010592;28;103745;-69
2023/01/05 07:04:22;;;;;;;2.60;0.93;;;;;;;11.91;91.57;99231.41;5014639;27;103897;-69
2023/01/05 07:06:51;;;;;;;4.90;1.47;;;;;;;11.81;91.71;99235.66;5009057;28;102920;-69
2023/01/05 07:09:19;;;;;;;4.83;1.47;;;;;;;11.82;90.68;99232.03;5010781;28;104162;-69
2023/01/05 07:11:47;;;;;;;3.00;1.17;;;;;;;11.62;91.41;99229.88;5007906;27;103976;-68
2023/01/05 07:14:16;;;;;;;4.17;1.50;;;;;;;11.89;90.28;99241.25;5012845;28;103183;-69
2023/01/05 07:16:43;;;;;;;2.57;1.17;;;;;;;11.79;90.89;99232.22;5000075;28;102720;-68
2023/01/05 07:19:11;;;;;;;3.47;1.20;;;;;;;11.77;89.52;99243.88;5011181;28;103615;-68
2023/01/05 07:21:39;;;;;;;2.90;0.90;;;;;;;11.74;89.01;99239.66;5010015;27;104059;-69
2023/01/05 07:24:09;;;;;;;2.20;1.00;;;;;;;11.74;88.08;99244.09;5014988;28;103338;-68
2023/01/05 07:26:37;;;;;;;2.87;1.00;;;;;;;11.98;87.15;99237.97;5021141;28;102689;-69
2023/01/05 07:29:05;;;;;;;4.27;1.40;;;;;;;11.80;87.03;99239.22;5018365;28;103797;-68
2023/01/05 07:31:32;;;;;;;3.40;1.30;;;;;;;11.86;86.25;99238.81;5013214;28;103264;-68
2023/01/05 07:34:01;;;;;;;1.90;0.97;;;;;;;12.11;85.63;99237.94;5016695;28;103151;-68
2023/01/05 07:36:28;;;;;;;2.63;1.20;;;;;;;12.10;85.55;99241.53;5021674;27;102561;-68
2023/01/05 07:38:56;;;;;;;5.83;1.10;;;;;;;12.01;85.68;99243.03;5021805;28;103769;-68
2023/01/05 07:41:27;;;;;;;5.97;1.30;;;;;;;11.78;85.80;99229.72;5016727;28;103364;-67
2023/01/05 07:43:55;;;;;;;4.93;1.10;;;;;;;12.13;84.69;99242.19;5010849;28;103315;-67
2023/01/05 07:46:23;;;;;;;4.67;1.23;;;;;;;12.06;84.99;99246.22;4994303;28;102606;-67
2023/01/05 07:48:51;;;;;;;4.10;1.30;;;;;;;11.88;85.04;99247.50;5009624;28;103855;-68
2023/01/05 07:51:21;;;;;;;5.13;1.33;;;;;;;11.86;85.99;99249.41;5020684;27;103229;-67
2023/01/05 07:53:49;;;;;;;7.20;1.43;;;;;;;12.04;84.55;99258.72;5014589;27;103186;-69
2023/01/05 07:56:17;;;;;;;4.47;1.10;;;;;;;12.00;84.77;99230.75;5012786;27;102577;-68
2023/01/05 07:58:46;;;;;;;3.90;1.17;;;;;;;12.01;83.97;99256.28;5014943;27;104443;-67
2023/01/05 08:01:16;;;;;;;3.57;1.17;;;;;;;11.99;83.66;99265.28;5011530;27;103629;-66
2023/01/05 08:03:45;;;;;;;3.37;1.00;;;;;;;12.04;82.42;99252.59;5005893;27;102642;-66
2023/01/05 08:06:14;;;;;;;3.63;1.20;;;;;;;12.02;81.38;99265.06;5009089;27;102666;-66
2023/01/05 08:08:42;;;;;;;3.43;1.00;;;;;;;11.91;80.79;99276.41;4990540;27;103883;-66
2023/01/05 08:11:14;;;;;;;1.53;0.90;;;;;;;12.10;80.64;99287.44;5008252;27;103398;-66
2023/01/05 08:14:01;;;;;;;3.23;1.33;;;;;;;12.15;80.41;99290.59;5004852;27;103283;-67
2023/01/05 08:16:32;;;;;;;7.50;1.60;;;;;;;12.07;80.21;99282.34;5004673;27;102777;-67
2023/01/05 08:19:00;;;;;;;5.30;1.27;;;;;;;12.01;80.11;99290.69;4989550;27;102720;-67
2023/01/05 08:21:33;;;;;;;3.90;1.00;;;;;;;12.08;80.22;99292.00;5007576;27;104557;-67
2023/01/05 08:24:00;;;;;;;2.80;1.03;;;;;;;12.04;80.49;99289.66;4994018;27;104311;-67
2023/01/05 08:26:28;;;;;;;3.00;1.20;;;;;;;12.01;79.87;99295.19;5003136;27;102820;-67
2023/01/05 08:28:56;;;;;;;8.17;1.13;;;;;;;12.08;79.51;99299.94;5010114;27;103894;-67
2023/01/05 08:31:27;;;;;;;3.93;1.43;;;;;;;11.93;80.35;99298.31;5007222;27;103321;-67
2023/01/05 08:33:58;;;;;;;4.33;1.77;;;;;;;12.07;79.94;99294.75;5006052;27;103278;-67
2023/01/05 08:36:26;;;;;;;2.90;1.10;;;;;;;12.08;79.71;99313.19;4991925;27;102640;-67
2023/01/05 08:38:55;;;;;;;5.13;1.63;;;;;;;11.92;80.43;99304.59;5010630;27;103839;-67
2023/01/05 08:41:25;;;;;;;5.50;1.47;;;;;;;12.25;80.11;99314.66;5005874;27;104022;-67
2023/01/05 08:43:54;;;;;;;3.67;1.50;;;;;;;12.26;79.99;99310.22;4988559;27;104326;-67
2023/01/05 08:46:24;;;;;;;5.70;1.40;;;;;;;12.10;80.77;99316.56;5005964;27;102802;-67
2023/01/05 08:48:53;;;;;;;5.27;1.47;;;;;;;12.04;80.54;99318.81;5009282;27;103871;-67
2023/01/05 08:51:23;;;;;;;4.00;1.60;;;;;;;12.04;80.73;99316.97;4993819;27;104285;-66
2023/01/05 08:53:51;;;;;;;4.00;1.37;;;;;;;12.09;79.96;99320.19;5008609;27;103211;-66
2023/01/05 08:56:20;;;;;;;6.10;1.97;;;;;;;12.12;80.54;99325.28;5012049;27;102971;-66
2023/01/05 08:58:48;;;;;;;4.57;1.33;;;;;;;12.21;80.49;99323.75;5010042;27;103776;-66
2023/01/05 09:01:20;;;;;;;5.13;1.40;;;;;;;12.09;80.35;99330.78;5010269;27;103279;-66
2023/01/05 09:03:48;;;;;;;4.67;1.60;;;;;;;12.24;80.38;99328.03;5012494;27;103178;-66
2023/01/05 09:06:17;;;;;;;4.73;1.63;;;;;;;12.25;79.76;99335.00;4979907;27;103487;-66
2023/01/05 09:08:47;;;;;;;5.07;1.63;;;;;;;12.29;79.12;99341.78;5011112;27;103649;-66
2023/01/05 09:11:17;;;;;;;6.70;1.70;;;;;;;12.11;78.79;99338.59;5006417;27;103795;-65
2023/01/05 09:13:47;;;;;;;3.50;1.30;;;;;;;12.26;77.92;99352.59;5003199;27;103249;-67
2023/01/05 09:16:17;;;;;;;4.83;1.43;;;;;;;12.18;77.24;99345.19;5003307;27;102821;-67
2023/01/05 09:19:05;;;;;;;9.13;1.80;;;;;;;12.17;77.61;99348.78;5002124;27;103096;-67
2023/01/05 09:21:33;;;;;;;4.70;1.80;;;;;;;12.07;76.84;99353.03;5007084;27;103389;-67
2023/01/05 09:24:03;;;;;;;3.33;1.47;;;;;;;12.14;76.44;99349.00;4996633;27;103197;-67
2023/01/05 09:26:31;;;;;;;6.47;1.87;;;;;;;12.19;75.55;99353.03;5005662;27;102670;-67
2023/01/05 09:28:58;;;;;;;5.90;1.50;;;;;;;12.19;74.93;99352.16;4988861;27;102912;-68
2023/01/05 09:31:27;;;;;;;6.17;1.67;;;;;;;12.24;74.27;99359.81;5007868;27;103420;-68
2023/01/05 09:33:56;;;;;;;3.90;1.47;;;;;;;12.35;73.55;99358.09;5019917;27;103200;-68
2023/01/05 09:36:24;;;;;;;8.93;2.10;;;;;;;12.24;72.94;99362.47;5016200;27;102842;-68
2023/01/05 09:38:55;;;;;;;6.80;1.60;;;;;;;12.38;72.54;99357.06;5019330;27;103115;-68
2023/01/05 09:41:27;;;;;;;6.03;2.37;;;;;;;12.39;72.03;99374.63;4994909;28;103255;-68
2023/01/05 09:43:57;;;;;;;8.00;1.97;;;;;;;12.32;71.27;99374.22;5000296;28;103224;-69
2023/01/05 09:46:31;;;;;;;4.07;1.50;;;;;;;12.35;71.61;99381.13;5000734;28;102600;-68
2023/01/05 09:49:03;;;;;;;6.87;1.93;;;;;;;12.50;71.38;99385.34;4999011;28;104065;-68
2023/01/05 09:51:32;;;;;;;7.30;2.30;;;;;;;12.41;71.11;99384.19;4998983;28;103658;-68
2023/01/05 09:54:01;;;;;;;7.60;2.23;;;;;;;12.18;71.94;99393.69;4995169;28;103173;-68
2023/01/05 09:56:35;;;;;;;10.53;2.17;;;;;;;12.34;71.29;99392.66;4996141;28;102821;-68
2023/01/05 09:59:27;;;;;;;7.37;1.80;;;;;;;12.38;72.04;99383.56;4985807;28;103083;-68
2023/01/05 10:02:00;;;;;;;5.40;2.17;;;;;;;12.42;71.90;99392.97;4994181;28;103329;-68
2023/01/05 10:04:31;;;;;;;6.37;1.60;;;;;;;12.24;71.18;99394.25;4992740;28;104208;-68
2023/01/05 10:07:03;;;;;;;10.87;2.27;;;;;;;12.50;71.60;99385.34;4995342;28;102751;-68
2023/01/05 10:09:35;;;;;;;8.43;2.07;;;;;;;12.51;71.20;99387.06;4994697;28;103925;-68
2023/01/05 10:15:05;;;;;;;5.30;1.93;;;;;;;12.36;71.54;99391.59;4998398;28;103292;-68
2023/01/05 10:17:38;;;;;;;5.07;1.87;;;;;;;12.44;71.34;99383.09;4997649;28;102706;-68
2023/01/05 10:20:16;;;;;;;7.47;1.83;;;;;;;12.54;70.85;99378.88;4980077;28;103845;-69
2023/01/05 10:22:53;;;;;;;6.80;2.13;;;;;;;12.59;70.87;99376.75;4995394;28;104226;-67
2023/01/05 10:25:26;;;;;;;9.93;2.30;;;;;;;12.42;70.80;99374.44;4982662;28;103857;-69
2023/01/05 10:28:06;;;;;;;10.83;2.23;;;;;;;12.56;70.48;99377.81;4976696;28;102776;-66
2023/01/05 10:30:48;;;;;;;5.67;1.80;;;;;;;12.65;69.61;99376.34;4993245;28;102765;-68
2023/01/05 10:33:24;;;;;;;6.70;2.07;;;;;;;12.54;70.40;99376.25;4986721;28;104730;-67
2023/01/05 10:36:18;;;;;;;10.90;2.07;;;;;;;12.54;69.77;99370.94;4976272;28;103067;-68
2023/01/05 10:39:23;;;;;;;6.77;2.00;;;;;;;12.78;69.45;99378.00;4993035;28;102708;-68
2023/01/05 10:42:02;;;;;;;5.93;2.13;;;;;;;12.73;69.24;99384.59;4958834;28;104072;-68
2023/01/05 10:44:51;;;;;;;7.47;2.10;;;;;;;12.85;68.99;99385.53;5000673;28;103262;-67
2023/01/05 10:47:21;;;;;;;13.13;2.67;;;;;;;12.92;68.79;99381.47;5000207;28;103198;-68
2023/01/05 10:49:51;;;;;;;10.07;2.40;;;;;;;12.88;69.17;99372.06;4999737;28;102748;-69
2023/01/05 10:52:20;;;;;;;7.73;2.27;;;;;;;12.73;69.54;99387.25;4988753;28;103864;-68
2023/01/05 10:54:52;;;;;;;12.87;2.50;;;;;;;12.78;69.48;99382.47;4986961;28;104559;-66
2023/01/05 10:57:40;;;;;;;7.93;2.60;;;;;;;12.77;69.56;99384.25;4972787;28;103496;-66
2023/01/05 11:00:13;;;;;;;9.67;2.60;;;;;;;12.98;69.29;99381.91;4978639;28;103133;-68
2023/01/05 11:02:48;;;;;;;8.60;2.07;;;;;;;12.85;68.33;99378.44;4980178;28;102816;-66
2023/01/05 11:05:26;;;;;;;8.70;2.67;;;;;;;12.90;68.78;99378.94;5008103;28;103259;-66
2023/01/05 11:07:57;;;;;;;5.63;2.37;;;;;;;12.91;69.21;99388.63;4987927;28;103090;-65
2023/01/05 11:10:29;;;;;;;8.33;2.37;;;;;;;12.94;68.82;99383.06;4990745;28;103246;-66
2023/01/05 11:13:17;;;;;;;7.63;2.27;;;;;;;12.91;68.57;99380.66;5007804;28;104458;-66
2023/01/05 11:15:52;;;;;;;8.83;2.30;;;;;;;13.13;68.33;99388.81;5003183;27;103292;-67
2023/01/05 11:18:26;;;;;;;8.60;1.90;;;;;;;12.81;68.77;99387.56;5007891;27;102986;-66
2023/01/05 11:21:09;;;;;;;4.57;1.70;;;;;;;12.93;68.10;99396.44;4993015;27;103877;-66
2023/01/05 11:23:39;;;;;;;8.27;1.90;;;;;;;12.67;68.15;99387.66;4996256;28;104153;-66
2023/01/05 11:26:27;;;;;;;7.33;2.13;;;;;;;12.85;67.74;99385.53;5005337;27;103203;-66
2023/01/05 11:29:13;;;;;;;5.80;1.80;;;;;;;12.98;68.00;99381.03;4998728;28;103310;-66
2023/01/05 11:31:47;;;;;;;7.40;1.73;;;;;;;12.65;68.21;99387.78;5004989;27;102694;-66
2023/01/05 11:34:44;;;;;;;9.00;2.33;;;;;;;12.78;67.71;99390.41;5006778;27;103628;-66
2023/01/05 11:37:24;;;;;;;10.07;2.50;;;;;;;12.92;68.08;99382.34;4971097;28;104590;-66
2023/01/05 11:39:54;;;;;;;10.00;2.90;;;;;;;12.82;67.58;99389.25;4995476;28;104245;-66
2023/01/05 11:42:30;;;;;;;7.43;2.40;;;;;;;12.74;67.71;99384.47;4987014;27;102983;-67
2023/01/05 11:45:01;;;;;;;6.27;1.80;;;;;;;12.93;67.97;99381.38;5003671;28;102910;-66
2023/01/05 11:47:34;;;;;;;9.53;2.20;;;;;;;13.01;67.38;99380.84;5006394;28;104678;-66
2023/01/05 11:50:20;;;;;;;9.67;2.57;;;;;;;12.80;67.55;99385.84;4996626;27;103358;-66
2023/01/05 11:52:49;;;;;;;7.53;2.20;;;;;;;12.79;67.45;99385.03;4980348;28;102914;-67
2023/01/05 11:55:33;;;;;;;9.00;1.93;;;;;;;12.93;67.59;99383.19;5006437;28;102624;-67
2023/01/05 11:58:16;;;;;;;8.43;2.30;;;;;;;12.75;66.81;99386.19;4986381;28;104232;-66
2023/01/05 12:01:01;;;;;;;7.40;1.93;;;;;;;12.96;66.78;99386.47;4988042;28;103324;-65
2023/01/05 12:03:45;;;;;;;9.33;2.40;;;;;;;12.95;67.03;99383.91;4961670;28;103344;-67
2023/01/05 12:06:30;;;;;;;8.07;2.20;;;;;;;12.88;66.94;99383.53;4979751;28;103683;-66
2023/01/05 12:09:05;;;;;;;7.87;2.30;;;;;;;12.85;67.46;99382.88;4979637;28;103244;-67
2023/01/05 12:11:44;;;;;;;7.23;2.07;;;;;;;12.67;67.69;99375.28;4976172;28;103225;-67
2023/01/05 12:14:30;;;;;;;9.47;2.50;;;;;;;12.89;67.07;99373.75;4979321;28;103189;-68
2023/01/05 12:17:04;;;;;;;6.40;2.07;;;;;;;13.00;67.46;99376.47;4982239;28;104334;-66
2023/01/05 12:19:48;;;;;;;5.97;1.93;;;;;;;13.07;67.08;99383.06;4971027;28;104230;-68